sensor_id;sensor_type;location;lat;lon;timestamp;P1;durP1;ratioP1;P2;durP2;ratioP2
4933;SDS011;2482;49.154;8.254;2024-03-22T00:02:02;13.17;;;9.33;;
4933;SDS011;2482;49.154;8.254;2024-03-22T00:04:29;11.30;;;8.27;;
4933;SDS011;2482;49.154;8.254;2024-03-22T00:06:56;11.60;;;8.50;;
4933;SDS011;2482;49.154;8.254;2024-03-22T00:09:23;9.60;;;7.17;;
4933;SDS011;2482;49.154;8.254;2024-03-22T00:11:49;9.83;;;6.30;;
4933;SDS011;2482;49.154;8.254;2024-03-22T00:14:15;13.87;;;7.03;;
4933;SDS011;2482;49.154;8.254;2024-03-22T00:16:42;11.50;;;7.23;;
4933;SDS011;2482;49.154;8.254;2024-03-22T00:19:08;10.90;;;7.40;;
4933;SDS011;2482;49.154;8.254;2024-03-22T00:21:34;11.80;;;7.57;;
4933;SDS011;2482;49.154;8.254;2024-03-22T00:24:00;11.47;;;7.33;;
4933;SDS011;2482;49.154;8.254;2024-03-22T00:26:27;8.63;;;6.70;;
4933;SDS011;2482;49.154;8.254;2024-03-22T00:28:53;9.63;;;7.23;;
4933;SDS011;2482;49.154;8.254;2024-03-22T00:31:19;11.77;;;6.50;;
4933;SDS011;2482;49.154;8.254;2024-03-22T00:33:45;8.57;;;6.90;;
4933;SDS011;2482;49.154;8.254;2024-03-22T00:36:12;9.90;;;6.50;;
4933;SDS011;2482;49.154;8.254;2024-03-22T00:38:38;9.40;;;6.37;;
4933;SDS011;2482;49.154;8.254;2024-03-22T00:41:04;10.83;;;6.50;;
4933;SDS011;2482;49.154;8.254;2024-03-22T00:43:31;8.20;;;6.23;;
4933;SDS011;2482;49.154;8.254;2024-03-22T00:45:58;8.33;;;5.70;;
4933;SDS011;2482;49.154;8.254;2024-03-22T00:48:24;7.77;;;6.10;;
4933;SDS011;2482;49.154;8.254;2024-03-22T00:50:50;9.70;;;6.37;;
4933;SDS011;2482;49.154;8.254;2024-03-22T00:53:16;10.47;;;5.80;;
4933;SDS011;2482;49.154;8.254;2024-03-22T00:55:42;9.67;;;6.17;;
4933;SDS011;2482;49.154;8.254;2024-03-22T00:58:09;7.53;;;6.00;;
4933;SDS011;2482;49.154;8.254;2024-03-22T01:00:35;9.27;;;6.77;;
4933;SDS011;2482;49.154;8.254;2024-03-22T01:03:02;9.47;;;6.33;;
4933;SDS011;2482;49.154;8.254;2024-03-22T01:05:29;10.60;;;7.63;;
4933;SDS011;2482;49.154;8.254;2024-03-22T01:07:55;9.90;;;6.80;;
4933;SDS011;2482;49.154;8.254;2024-03-22T01:10:21;9.13;;;6.57;;
4933;SDS011;2482;49.154;8.254;2024-03-22T01:12:47;9.17;;;6.40;;
4933;SDS011;2482;49.154;8.254;2024-03-22T01:15:13;6.73;;;5.13;;
4933;SDS011;2482;49.154;8.254;2024-03-22T01:17:39;9.50;;;6.03;;
4933;SDS011;2482;49.154;8.254;2024-03-22T01:20:05;9.47;;;6.50;;
4933;SDS011;2482;49.154;8.254;2024-03-22T01:22:32;10.37;;;6.30;;
4933;SDS011;2482;49.154;8.254;2024-03-22T01:24:58;8.17;;;5.60;;
4933;SDS011;2482;49.154;8.254;2024-03-22T01:27:24;9.30;;;6.33;;
4933;SDS011;2482;49.154;8.254;2024-03-22T01:29:50;8.07;;;5.60;;
4933;SDS011;2482;49.154;8.254;2024-03-22T01:32:17;7.43;;;5.60;;
4933;SDS011;2482;49.154;8.254;2024-03-22T01:34:43;7.37;;;5.73;;
4933;SDS011;2482;49.154;8.254;2024-03-22T01:37:09;7.90;;;5.87;;
4933;SDS011;2482;49.154;8.254;2024-03-22T01:39:35;7.50;;;5.40;;
4933;SDS011;2482;49.154;8.254;2024-03-22T01:42:01;8.87;;;6.27;;
4933;SDS011;2482;49.154;8.254;2024-03-22T01:44:28;8.90;;;6.10;;
4933;SDS011;2482;49.154;8.254;2024-03-22T01:46:55;9.60;;;6.03;;
4933;SDS011;2482;49.154;8.254;2024-03-22T01:49:21;6.60;;;5.57;;
4933;SDS011;2482;49.154;8.254;2024-03-22T01:51:50;8.07;;;6.33;;
4933;SDS011;2482;49.154;8.254;2024-03-22T01:54:17;9.17;;;6.63;;
4933;SDS011;2482;49.154;8.254;2024-03-22T01:56:45;8.10;;;6.43;;
4933;SDS011;2482;49.154;8.254;2024-03-22T01:59:12;9.47;;;6.87;;
4933;SDS011;2482;49.154;8.254;2024-03-22T02:01:38;11.47;;;7.40;;
4933;SDS011;2482;49.154;8.254;2024-03-22T02:04:06;11.10;;;7.67;;
4933;SDS011;2482;49.154;8.254;2024-03-22T02:06:32;11.30;;;7.70;;
4933;SDS011;2482;49.154;8.254;2024-03-22T02:08:58;9.70;;;7.20;;
4933;SDS011;2482;49.154;8.254;2024-03-22T02:11:25;10.90;;;7.30;;
4933;SDS011;2482;49.154;8.254;2024-03-22T02:13:52;11.27;;;7.80;;
4933;SDS011;2482;49.154;8.254;2024-03-22T02:16:18;9.97;;;6.80;;
4933;SDS011;2482;49.154;8.254;2024-03-22T02:18:45;7.60;;;6.17;;
4933;SDS011;2482;49.154;8.254;2024-03-22T02:21:11;11.87;;;7.43;;
4933;SDS011;2482;49.154;8.254;2024-03-22T02:23:37;8.70;;;6.67;;
4933;SDS011;2482;49.154;8.254;2024-03-22T02:26:05;15.20;;;7.50;;
4933;SDS011;2482;49.154;8.254;2024-03-22T02:28:33;10.47;;;6.93;;
4933;SDS011;2482;49.154;8.254;2024-03-22T02:31:01;9.87;;;7.87;;
4933;SDS011;2482;49.154;8.254;2024-03-22T02:33:28;9.50;;;6.90;;
4933;SDS011;2482;49.154;8.254;2024-03-22T02:35:54;9.97;;;6.87;;
4933;SDS011;2482;49.154;8.254;2024-03-22T02:38:21;10.60;;;6.90;;
4933;SDS011;2482;49.154;8.254;2024-03-22T02:40:48;9.77;;;7.07;;
4933;SDS011;2482;49.154;8.254;2024-03-22T02:43:17;10.53;;;7.10;;
4933;SDS011;2482;49.154;8.254;2024-03-22T02:45:44;12.90;;;6.87;;
4933;SDS011;2482;49.154;8.254;2024-03-22T02:48:11;8.80;;;6.83;;
4933;SDS011;2482;49.154;8.254;2024-03-22T02:50:38;11.30;;;8.00;;
4933;SDS011;2482;49.154;8.254;2024-03-22T02:53:05;9.90;;;7.17;;
4933;SDS011;2482;49.154;8.254;2024-03-22T02:55:39;9.80;;;7.50;;
4933;SDS011;2482;49.154;8.254;2024-03-22T02:58:06;12.03;;;7.37;;
4933;SDS011;2482;49.154;8.254;2024-03-22T03:00:36;10.33;;;7.63;;
4933;SDS011;2482;49.154;8.254;2024-03-22T03:03:06;9.20;;;7.03;;
4933;SDS011;2482;49.154;8.254;2024-03-22T03:05:32;9.30;;;6.97;;
4933;SDS011;2482;49.154;8.254;2024-03-22T03:08:00;13.40;;;7.87;;
4933;SDS011;2482;49.154;8.254;2024-03-22T03:10:26;10.33;;;7.10;;
4933;SDS011;2482;49.154;8.254;2024-03-22T03:12:54;9.20;;;6.47;;
4933;SDS011;2482;49.154;8.254;2024-03-22T03:15:20;11.47;;;7.70;;
4933;SDS011;2482;49.154;8.254;2024-03-22T03:17:47;8.80;;;7.03;;
4933;SDS011;2482;49.154;8.254;2024-03-22T03:20:13;8.30;;;6.47;;
4933;SDS011;2482;49.154;8.254;2024-03-22T03:22:40;9.27;;;6.80;;
4933;SDS011;2482;49.154;8.254;2024-03-22T03:25:07;8.97;;;6.93;;
4933;SDS011;2482;49.154;8.254;2024-03-22T03:27:34;10.23;;;7.17;;
4933;SDS011;2482;49.154;8.254;2024-03-22T03:30:00;12.10;;;8.20;;
4933;SDS011;2482;49.154;8.254;2024-03-22T03:32:28;10.53;;;7.13;;
4933;SDS011;2482;49.154;8.254;2024-03-22T03:34:54;12.17;;;7.00;;
4933;SDS011;2482;49.154;8.254;2024-03-22T03:37:20;10.17;;;7.30;;
4933;SDS011;2482;49.154;8.254;2024-03-22T03:39:46;9.27;;;6.87;;
4933;SDS011;2482;49.154;8.254;2024-03-22T03:42:13;10.00;;;6.90;;
4933;SDS011;2482;49.154;8.254;2024-03-22T03:44:39;11.07;;;8.07;;
4933;SDS011;2482;49.154;8.254;2024-03-22T03:47:07;11.73;;;7.73;;
4933;SDS011;2482;49.154;8.254;2024-03-22T03:49:34;8.50;;;6.37;;
4933;SDS011;2482;49.154;8.254;2024-03-22T03:52:00;10.37;;;7.43;;
4933;SDS011;2482;49.154;8.254;2024-03-22T03:54:26;9.70;;;6.87;;
4933;SDS011;2482;49.154;8.254;2024-03-22T03:56:52;9.20;;;6.60;;
4933;SDS011;2482;49.154;8.254;2024-03-22T03:59:18;9.37;;;7.33;;
4933;SDS011;2482;49.154;8.254;2024-03-22T04:01:44;10.00;;;6.00;;
4933;SDS011;2482;49.154;8.254;2024-03-22T04:04:10;8.00;;;6.20;;
4933;SDS011;2482;49.154;8.254;2024-03-22T04:06:36;11.40;;;7.23;;
4933;SDS011;2482;49.154;8.254;2024-03-22T04:09:03;8.30;;;6.47;;
4933;SDS011;2482;49.154;8.254;2024-03-22T04:11:30;10.93;;;6.80;;
4933;SDS011;2482;49.154;8.254;2024-03-22T04:13:58;10.83;;;7.33;;
4933;SDS011;2482;49.154;8.254;2024-03-22T04:16:27;10.00;;;6.57;;
4933;SDS011;2482;49.154;8.254;2024-03-22T04:18:54;9.07;;;6.60;;
4933;SDS011;2482;49.154;8.254;2024-03-22T04:21:20;12.83;;;7.70;;
4933;SDS011;2482;49.154;8.254;2024-03-22T04:23:46;7.87;;;6.50;;
4933;SDS011;2482;49.154;8.254;2024-03-22T04:26:12;8.53;;;6.90;;
4933;SDS011;2482;49.154;8.254;2024-03-22T04:28:38;10.37;;;6.53;;
4933;SDS011;2482;49.154;8.254;2024-03-22T04:31:05;10.20;;;7.27;;
4933;SDS011;2482;49.154;8.254;2024-03-22T04:33:34;9.37;;;6.27;;
4933;SDS011;2482;49.154;8.254;2024-03-22T04:36:02;10.87;;;7.00;;
4933;SDS011;2482;49.154;8.254;2024-03-22T04:38:29;9.53;;;7.30;;
4933;SDS011;2482;49.154;8.254;2024-03-22T04:40:56;10.43;;;6.20;;
4933;SDS011;2482;49.154;8.254;2024-03-22T04:43:24;8.97;;;6.90;;
4933;SDS011;2482;49.154;8.254;2024-03-22T04:45:51;7.77;;;6.33;;
4933;SDS011;2482;49.154;8.254;2024-03-22T04:48:18;10.63;;;6.60;;
4933;SDS011;2482;49.154;8.254;2024-03-22T04:50:48;10.57;;;7.20;;
4933;SDS011;2482;49.154;8.254;2024-03-22T04:53:17;9.70;;;6.40;;
4933;SDS011;2482;49.154;8.254;2024-03-22T04:55:46;8.97;;;6.23;;
4933;SDS011;2482;49.154;8.254;2024-03-22T05:00:46;9.70;;;6.73;;
4933;SDS011;2482;49.154;8.254;2024-03-22T05:03:13;10.97;;;6.80;;
4933;SDS011;2482;49.154;8.254;2024-03-22T05:05:41;11.20;;;6.97;;
4933;SDS011;2482;49.154;8.254;2024-03-22T05:08:08;9.43;;;6.77;;
4933;SDS011;2482;49.154;8.254;2024-03-22T05:10:37;8.03;;;6.67;;
4933;SDS011;2482;49.154;8.254;2024-03-22T05:13:06;9.63;;;6.67;;
4933;SDS011;2482;49.154;8.254;2024-03-22T05:15:33;8.33;;;5.97;;
4933;SDS011;2482;49.154;8.254;2024-03-22T05:18:00;8.17;;;6.37;;
4933;SDS011;2482;49.154;8.254;2024-03-22T05:20:26;12.00;;;7.80;;
4933;SDS011;2482;49.154;8.254;2024-03-22T05:22:52;10.00;;;6.17;;
4933;SDS011;2482;49.154;8.254;2024-03-22T05:25:18;8.40;;;6.43;;
4933;SDS011;2482;49.154;8.254;2024-03-22T05:27:44;8.93;;;5.63;;
4933;SDS011;2482;49.154;8.254;2024-03-22T05:30:11;7.63;;;6.23;;
4933;SDS011;2482;49.154;8.254;2024-03-22T05:32:40;6.70;;;5.40;;
4933;SDS011;2482;49.154;8.254;2024-03-22T05:35:06;11.53;;;5.57;;
4933;SDS011;2482;49.154;8.254;2024-03-22T05:37:33;6.83;;;5.50;;
4933;SDS011;2482;49.154;8.254;2024-03-22T05:40:03;9.67;;;6.80;;
4933;SDS011;2482;49.154;8.254;2024-03-22T05:42:30;11.37;;;7.20;;
4933;SDS011;2482;49.154;8.254;2024-03-22T05:44:56;10.70;;;6.70;;
4933;SDS011;2482;49.154;8.254;2024-03-22T05:47:22;11.50;;;7.80;;
4933;SDS011;2482;49.154;8.254;2024-03-22T05:49:48;11.57;;;6.63;;
4933;SDS011;2482;49.154;8.254;2024-03-22T05:52:15;10.40;;;7.40;;
4933;SDS011;2482;49.154;8.254;2024-03-22T05:54:42;12.77;;;8.23;;
4933;SDS011;2482;49.154;8.254;2024-03-22T05:57:09;12.80;;;7.10;;
4933;SDS011;2482;49.154;8.254;2024-03-22T05:59:37;14.87;;;8.50;;
4933;SDS011;2482;49.154;8.254;2024-03-22T06:02:04;11.10;;;8.53;;
4933;SDS011;2482;49.154;8.254;2024-03-22T06:04:31;13.73;;;8.50;;
4933;SDS011;2482;49.154;8.254;2024-03-22T06:06:57;10.40;;;7.67;;
4933;SDS011;2482;49.154;8.254;2024-03-22T06:09:26;14.43;;;8.40;;
4933;SDS011;2482;49.154;8.254;2024-03-22T06:12:11;13.40;;;8.60;;
4933;SDS011;2482;49.154;8.254;2024-03-22T06:14:42;11.23;;;8.07;;
4933;SDS011;2482;49.154;8.254;2024-03-22T06:17:08;13.07;;;7.87;;
4933;SDS011;2482;49.154;8.254;2024-03-22T06:19:35;11.37;;;8.03;;
4933;SDS011;2482;49.154;8.254;2024-03-22T06:22:01;11.47;;;8.50;;
4933;SDS011;2482;49.154;8.254;2024-03-22T06:24:28;11.80;;;7.90;;
4933;SDS011;2482;49.154;8.254;2024-03-22T06:26:57;12.80;;;7.70;;
4933;SDS011;2482;49.154;8.254;2024-03-22T06:29:24;11.63;;;7.90;;
4933;SDS011;2482;49.154;8.254;2024-03-22T06:31:51;15.63;;;8.03;;
4933;SDS011;2482;49.154;8.254;2024-03-22T06:34:18;14.60;;;8.60;;
4933;SDS011;2482;49.154;8.254;2024-03-22T06:36:44;12.67;;;8.70;;
4933;SDS011;2482;49.154;8.254;2024-03-22T06:39:11;15.13;;;9.10;;
4933;SDS011;2482;49.154;8.254;2024-03-22T06:41:37;11.80;;;7.93;;
4933;SDS011;2482;49.154;8.254;2024-03-22T06:44:04;12.33;;;8.83;;
4933;SDS011;2482;49.154;8.254;2024-03-22T06:46:30;11.50;;;8.33;;
4933;SDS011;2482;49.154;8.254;2024-03-22T06:48:57;12.07;;;9.50;;
4933;SDS011;2482;49.154;8.254;2024-03-22T06:51:24;11.20;;;7.70;;
4933;SDS011;2482;49.154;8.254;2024-03-22T06:53:50;10.43;;;8.07;;
4933;SDS011;2482;49.154;8.254;2024-03-22T06:56:18;16.93;;;8.93;;
4933;SDS011;2482;49.154;8.254;2024-03-22T06:58:44;10.10;;;7.07;;
4933;SDS011;2482;49.154;8.254;2024-03-22T07:01:11;10.90;;;8.20;;
4933;SDS011;2482;49.154;8.254;2024-03-22T07:03:38;12.20;;;7.00;;
4933;SDS011;2482;49.154;8.254;2024-03-22T07:06:05;10.97;;;7.60;;
4933;SDS011;2482;49.154;8.254;2024-03-22T07:08:34;9.13;;;6.73;;
4933;SDS011;2482;49.154;8.254;2024-03-22T07:11:04;10.50;;;7.70;;
4933;SDS011;2482;49.154;8.254;2024-03-22T07:13:31;9.23;;;6.47;;
4933;SDS011;2482;49.154;8.254;2024-03-22T07:15:58;11.13;;;6.70;;
4933;SDS011;2482;49.154;8.254;2024-03-22T07:18:24;9.27;;;6.80;;
4933;SDS011;2482;49.154;8.254;2024-03-22T07:20:51;8.47;;;6.37;;
4933;SDS011;2482;49.154;8.254;2024-03-22T07:23:17;8.67;;;6.37;;
4933;SDS011;2482;49.154;8.254;2024-03-22T07:25:44;10.73;;;6.27;;
4933;SDS011;2482;49.154;8.254;2024-03-22T07:28:12;6.87;;;6.17;;
4933;SDS011;2482;49.154;8.254;2024-03-22T07:30:40;8.03;;;6.30;;
4933;SDS011;2482;49.154;8.254;2024-03-22T07:33:07;6.50;;;5.77;;
4933;SDS011;2482;49.154;8.254;2024-03-22T07:35:36;9.10;;;6.10;;
4933;SDS011;2482;49.154;8.254;2024-03-22T07:38:03;8.43;;;6.23;;
4933;SDS011;2482;49.154;8.254;2024-03-22T07:40:30;9.10;;;5.30;;
4933;SDS011;2482;49.154;8.254;2024-03-22T07:42:58;7.27;;;5.60;;
4933;SDS011;2482;49.154;8.254;2024-03-22T07:45:25;8.90;;;5.47;;
4933;SDS011;2482;49.154;8.254;2024-03-22T07:47:52;11.23;;;5.50;;
4933;SDS011;2482;49.154;8.254;2024-03-22T07:50:18;5.80;;;5.20;;
4933;SDS011;2482;49.154;8.254;2024-03-22T07:52:46;8.33;;;5.57;;
4933;SDS011;2482;49.154;8.254;2024-03-22T07:55:12;12.23;;;5.90;;
4933;SDS011;2482;49.154;8.254;2024-03-22T07:57:39;6.83;;;5.37;;
4933;SDS011;2482;49.154;8.254;2024-03-22T08:00:06;7.93;;;5.77;;
4933;SDS011;2482;49.154;8.254;2024-03-22T08:02:33;6.90;;;4.80;;
4933;SDS011;2482;49.154;8.254;2024-03-22T08:05:00;6.83;;;5.07;;
4933;SDS011;2482;49.154;8.254;2024-03-22T08:07:27;7.37;;;5.20;;
4933;SDS011;2482;49.154;8.254;2024-03-22T08:09:53;5.50;;;5.00;;
4933;SDS011;2482;49.154;8.254;2024-03-22T08:12:21;7.03;;;5.00;;
4933;SDS011;2482;49.154;8.254;2024-03-22T08:14:48;10.83;;;5.70;;
4933;SDS011;2482;49.154;8.254;2024-03-22T08:17:14;6.80;;;4.90;;
4933;SDS011;2482;49.154;8.254;2024-03-22T08:19:40;7.50;;;5.37;;
4933;SDS011;2482;49.154;8.254;2024-03-22T08:22:06;8.07;;;5.20;;
4933;SDS011;2482;49.154;8.254;2024-03-22T08:24:33;7.03;;;5.10;;
4933;SDS011;2482;49.154;8.254;2024-03-22T08:26:59;5.60;;;4.53;;
4933;SDS011;2482;49.154;8.254;2024-03-22T08:29:26;7.90;;;4.60;;
4933;SDS011;2482;49.154;8.254;2024-03-22T08:31:52;6.10;;;4.57;;
4933;SDS011;2482;49.154;8.254;2024-03-22T08:34:18;7.63;;;5.27;;
4933;SDS011;2482;49.154;8.254;2024-03-22T08:36:44;10.33;;;4.60;;
4933;SDS011;2482;49.154;8.254;2024-03-22T08:39:11;5.20;;;4.20;;
4933;SDS011;2482;49.154;8.254;2024-03-22T08:41:38;5.33;;;4.03;;
4933;SDS011;2482;49.154;8.254;2024-03-22T08:44:04;5.97;;;4.43;;
4933;SDS011;2482;49.154;8.254;2024-03-22T08:46:30;6.77;;;4.47;;
4933;SDS011;2482;49.154;8.254;2024-03-22T08:48:57;9.40;;;4.40;;
4933;SDS011;2482;49.154;8.254;2024-03-22T08:51:23;6.10;;;4.40;;
4933;SDS011;2482;49.154;8.254;2024-03-22T08:53:50;6.70;;;4.10;;
4933;SDS011;2482;49.154;8.254;2024-03-22T08:56:17;5.47;;;4.30;;
4933;SDS011;2482;49.154;8.254;2024-03-22T08:58:45;6.23;;;5.00;;
4933;SDS011;2482;49.154;8.254;2024-03-22T09:01:11;6.33;;;4.80;;
4933;SDS011;2482;49.154;8.254;2024-03-22T09:03:38;6.10;;;4.33;;
4933;SDS011;2482;49.154;8.254;2024-03-22T09:06:04;6.33;;;4.80;;
4933;SDS011;2482;49.154;8.254;2024-03-22T09:08:34;6.87;;;4.00;;
4933;SDS011;2482;49.154;8.254;2024-03-22T09:11:00;5.47;;;4.57;;
4933;SDS011;2482;49.154;8.254;2024-03-22T09:13:27;6.77;;;4.90;;
4933;SDS011;2482;49.154;8.254;2024-03-22T09:15:57;6.80;;;4.97;;
4933;SDS011;2482;49.154;8.254;2024-03-22T09:18:24;10.80;;;5.20;;
4933;SDS011;2482;49.154;8.254;2024-03-22T09:20:52;6.03;;;5.30;;
4933;SDS011;2482;49.154;8.254;2024-03-22T09:23:20;5.93;;;4.60;;
4933;SDS011;2482;49.154;8.254;2024-03-22T09:25:46;6.13;;;5.00;;
4933;SDS011;2482;49.154;8.254;2024-03-22T09:28:16;5.53;;;4.63;;
4933;SDS011;2482;49.154;8.254;2024-03-22T09:30:42;7.93;;;5.93;;
4933;SDS011;2482;49.154;8.254;2024-03-22T09:33:09;8.30;;;5.30;;
4933;SDS011;2482;49.154;8.254;2024-03-22T09:35:37;9.73;;;5.70;;
4933;SDS011;2482;49.154;8.254;2024-03-22T09:38:04;10.27;;;5.90;;
4933;SDS011;2482;49.154;8.254;2024-03-22T09:40:31;8.53;;;6.13;;
4933;SDS011;2482;49.154;8.254;2024-03-22T09:43:02;9.47;;;6.13;;
4933;SDS011;2482;49.154;8.254;2024-03-22T09:45:32;9.73;;;6.00;;
4933;SDS011;2482;49.154;8.254;2024-03-22T09:48:00;7.53;;;5.60;;
4933;SDS011;2482;49.154;8.254;2024-03-22T09:50:27;8.27;;;5.60;;
4933;SDS011;2482;49.154;8.254;2024-03-22T09:52:54;8.70;;;5.87;;
4933;SDS011;2482;49.154;8.254;2024-03-22T09:55:23;8.53;;;6.13;;
4933;SDS011;2482;49.154;8.254;2024-03-22T09:57:49;7.97;;;6.00;;
4933;SDS011;2482;49.154;8.254;2024-03-22T10:02:48;12.10;;;7.10;;
4933;SDS011;2482;49.154;8.254;2024-03-22T10:05:15;8.37;;;6.53;;
4933;SDS011;2482;49.154;8.254;2024-03-22T10:07:45;8.70;;;6.53;;
4933;SDS011;2482;49.154;8.254;2024-03-22T10:10:11;10.53;;;6.07;;
4933;SDS011;2482;49.154;8.254;2024-03-22T10:12:39;8.50;;;6.40;;
4933;SDS011;2482;49.154;8.254;2024-03-22T10:15:06;8.10;;;5.93;;
4933;SDS011;2482;49.154;8.254;2024-03-22T10:17:35;8.77;;;5.60;;
4933;SDS011;2482;49.154;8.254;2024-03-22T10:20:03;9.00;;;5.97;;
4933;SDS011;2482;49.154;8.254;2024-03-22T10:22:32;9.50;;;5.00;;
4933;SDS011;2482;49.154;8.254;2024-03-22T10:24:58;8.50;;;5.53;;
4933;SDS011;2482;49.154;8.254;2024-03-22T10:27:27;8.73;;;6.30;;
4933;SDS011;2482;49.154;8.254;2024-03-22T10:29:54;10.67;;;5.63;;
4933;SDS011;2482;49.154;8.254;2024-03-22T10:32:20;9.40;;;5.53;;
4933;SDS011;2482;49.154;8.254;2024-03-22T10:34:49;7.93;;;5.27;;
4933;SDS011;2482;49.154;8.254;2024-03-22T10:37:17;6.00;;;5.30;;
4933;SDS011;2482;49.154;8.254;2024-03-22T10:39:46;7.00;;;5.30;;
4933;SDS011;2482;49.154;8.254;2024-03-22T10:42:16;5.53;;;4.93;;
4933;SDS011;2482;49.154;8.254;2024-03-22T10:44:42;7.87;;;5.20;;
4933;SDS011;2482;49.154;8.254;2024-03-22T10:47:09;7.20;;;5.13;;
4933;SDS011;2482;49.154;8.254;2024-03-22T10:49:39;6.90;;;4.60;;
4933;SDS011;2482;49.154;8.254;2024-03-22T10:52:07;6.90;;;4.27;;
4933;SDS011;2482;49.154;8.254;2024-03-22T10:54:36;9.23;;;6.00;;
4933;SDS011;2482;49.154;8.254;2024-03-22T10:57:07;6.13;;;4.57;;
4933;SDS011;2482;49.154;8.254;2024-03-22T10:59:40;7.07;;;5.00;;
4933;SDS011;2482;49.154;8.254;2024-03-22T11:02:11;7.50;;;5.23;;
4933;SDS011;2482;49.154;8.254;2024-03-22T11:04:38;6.90;;;5.47;;
4933;SDS011;2482;49.154;8.254;2024-03-22T11:07:05;8.17;;;5.57;;
4933;SDS011;2482;49.154;8.254;2024-03-22T11:09:33;11.07;;;4.77;;
4933;SDS011;2482;49.154;8.254;2024-03-22T11:11:59;6.40;;;4.77;;
4933;SDS011;2482;49.154;8.254;2024-03-22T11:14:26;10.50;;;4.80;;
4933;SDS011;2482;49.154;8.254;2024-03-22T11:16:52;12.53;;;4.80;;
4933;SDS011;2482;49.154;8.254;2024-03-22T11:19:18;7.77;;;4.57;;
4933;SDS011;2482;49.154;8.254;2024-03-22T11:21:44;11.70;;;4.60;;
4933;SDS011;2482;49.154;8.254;2024-03-22T11:24:10;6.73;;;4.93;;
4933;SDS011;2482;49.154;8.254;2024-03-22T11:26:37;8.70;;;5.00;;
4933;SDS011;2482;49.154;8.254;2024-03-22T11:29:04;5.93;;;4.43;;
4933;SDS011;2482;49.154;8.254;2024-03-22T11:31:30;10.13;;;4.83;;
4933;SDS011;2482;49.154;8.254;2024-03-22T11:33:58;7.80;;;4.23;;
4933;SDS011;2482;49.154;8.254;2024-03-22T11:36:25;7.27;;;4.63;;
4933;SDS011;2482;49.154;8.254;2024-03-22T11:38:52;11.13;;;4.27;;
4933;SDS011;2482;49.154;8.254;2024-03-22T11:41:22;6.60;;;3.87;;
4933;SDS011;2482;49.154;8.254;2024-03-22T11:43:53;9.60;;;4.40;;
4933;SDS011;2482;49.154;8.254;2024-03-22T11:46:20;6.17;;;3.90;;
4933;SDS011;2482;49.154;8.254;2024-03-22T11:48:51;8.27;;;4.60;;
4933;SDS011;2482;49.154;8.254;2024-03-22T11:51:19;5.03;;;3.83;;
4933;SDS011;2482;49.154;8.254;2024-03-22T11:53:52;9.20;;;4.60;;
4933;SDS011;2482;49.154;8.254;2024-03-22T11:56:21;4.97;;;3.63;;
4933;SDS011;2482;49.154;8.254;2024-03-22T11:58:49;6.10;;;3.97;;
4933;SDS011;2482;49.154;8.254;2024-03-22T12:01:23;6.87;;;3.77;;
4933;SDS011;2482;49.154;8.254;2024-03-22T12:03:49;4.47;;;3.80;;
4933;SDS011;2482;49.154;8.254;2024-03-22T12:06:16;7.57;;;3.80;;
4933;SDS011;2482;49.154;8.254;2024-03-22T12:08:42;6.20;;;3.80;;
4933;SDS011;2482;49.154;8.254;2024-03-22T12:11:09;7.93;;;4.17;;
4933;SDS011;2482;49.154;8.254;2024-03-22T12:13:37;7.03;;;3.60;;
4933;SDS011;2482;49.154;8.254;2024-03-22T12:16:04;7.73;;;3.50;;
4933;SDS011;2482;49.154;8.254;2024-03-22T12:18:31;6.83;;;4.13;;
4933;SDS011;2482;49.154;8.254;2024-03-22T12:20:57;7.47;;;3.47;;
4933;SDS011;2482;49.154;8.254;2024-03-22T12:23:26;3.23;;;2.60;;
4933;SDS011;2482;49.154;8.254;2024-03-22T12:25:55;5.70;;;2.87;;
4933;SDS011;2482;49.154;8.254;2024-03-22T12:28:21;5.40;;;3.10;;
4933;SDS011;2482;49.154;8.254;2024-03-22T12:30:50;3.33;;;2.87;;
4933;SDS011;2482;49.154;8.254;2024-03-22T12:33:16;4.73;;;2.70;;
4933;SDS011;2482;49.154;8.254;2024-03-22T12:35:43;4.60;;;3.10;;
4933;SDS011;2482;49.154;8.254;2024-03-22T12:38:09;5.13;;;2.70;;
4933;SDS011;2482;49.154;8.254;2024-03-22T12:40:38;7.63;;;3.60;;
4933;SDS011;2482;49.154;8.254;2024-03-22T12:43:07;6.60;;;3.23;;
4933;SDS011;2482;49.154;8.254;2024-03-22T12:45:37;5.47;;;3.30;;
4933;SDS011;2482;49.154;8.254;2024-03-22T12:48:04;5.17;;;2.67;;
4933;SDS011;2482;49.154;8.254;2024-03-22T12:50:30;4.43;;;3.73;;
4933;SDS011;2482;49.154;8.254;2024-03-22T12:52:57;5.27;;;3.30;;
4933;SDS011;2482;49.154;8.254;2024-03-22T12:55:23;11.67;;;3.67;;
4933;SDS011;2482;49.154;8.254;2024-03-22T12:57:51;6.30;;;3.80;;
4933;SDS011;2482;49.154;8.254;2024-03-22T13:00:17;7.00;;;3.30;;
4933;SDS011;2482;49.154;8.254;2024-03-22T13:02:47;4.47;;;3.23;;
4933;SDS011;2482;49.154;8.254;2024-03-22T13:05:14;4.47;;;4.00;;
4933;SDS011;2482;49.154;8.254;2024-03-22T13:07:41;4.90;;;3.50;;
4933;SDS011;2482;49.154;8.254;2024-03-22T13:10:07;4.87;;;3.63;;
4933;SDS011;2482;49.154;8.254;2024-03-22T13:12:34;5.40;;;3.80;;
4933;SDS011;2482;49.154;8.254;2024-03-22T13:15:00;3.80;;;2.80;;
4933;SDS011;2482;49.154;8.254;2024-03-22T13:17:27;6.73;;;3.60;;
4933;SDS011;2482;49.154;8.254;2024-03-22T13:19:53;6.67;;;4.10;;
4933;SDS011;2482;49.154;8.254;2024-03-22T13:22:20;7.20;;;4.40;;
4933;SDS011;2482;49.154;8.254;2024-03-22T13:24:47;6.53;;;4.47;;
4933;SDS011;2482;49.154;8.254;2024-03-22T13:27:16;5.87;;;4.30;;
4933;SDS011;2482;49.154;8.254;2024-03-22T13:29:49;7.77;;;3.63;;
4933;SDS011;2482;49.154;8.254;2024-03-22T13:32:16;5.43;;;3.90;;
4933;SDS011;2482;49.154;8.254;2024-03-22T13:34:46;6.73;;;3.57;;
4933;SDS011;2482;49.154;8.254;2024-03-22T13:37:12;4.03;;;2.60;;
4933;SDS011;2482;49.154;8.254;2024-03-22T13:39:38;5.03;;;2.40;;
4933;SDS011;2482;49.154;8.254;2024-03-22T13:42:04;5.13;;;2.93;;
4933;SDS011;2482;49.154;8.254;2024-03-22T13:44:32;5.27;;;2.97;;
4933;SDS011;2482;49.154;8.254;2024-03-22T13:47:00;5.57;;;2.47;;
4933;SDS011;2482;49.154;8.254;2024-03-22T13:49:26;4.30;;;2.60;;
4933;SDS011;2482;49.154;8.254;2024-03-22T13:51:53;6.17;;;2.60;;
4933;SDS011;2482;49.154;8.254;2024-03-22T13:54:21;4.70;;;2.23;;
4933;SDS011;2482;49.154;8.254;2024-03-22T13:56:48;2.83;;;2.50;;
4933;SDS011;2482;49.154;8.254;2024-03-22T13:59:14;3.47;;;1.90;;
4933;SDS011;2482;49.154;8.254;2024-03-22T14:01:41;4.93;;;2.23;;
4933;SDS011;2482;49.154;8.254;2024-03-22T14:04:10;3.17;;;2.30;;
4933;SDS011;2482;49.154;8.254;2024-03-22T14:06:37;3.70;;;1.80;;
4933;SDS011;2482;49.154;8.254;2024-03-22T14:09:04;3.47;;;1.90;;
4933;SDS011;2482;49.154;8.254;2024-03-22T14:11:30;3.20;;;1.93;;
4933;SDS011;2482;49.154;8.254;2024-03-22T14:13:57;3.37;;;1.87;;
4933;SDS011;2482;49.154;8.254;2024-03-22T14:16:25;4.67;;;1.67;;
4933;SDS011;2482;49.154;8.254;2024-03-22T14:18:51;2.17;;;1.43;;
4933;SDS011;2482;49.154;8.254;2024-03-22T14:21:19;3.00;;;1.70;;
4933;SDS011;2482;49.154;8.254;2024-03-22T14:23:49;3.37;;;1.50;;
4933;SDS011;2482;49.154;8.254;2024-03-22T14:26:16;4.13;;;2.13;;
4933;SDS011;2482;49.154;8.254;2024-03-22T14:28:43;3.60;;;2.30;;
4933;SDS011;2482;49.154;8.254;2024-03-22T14:31:10;2.93;;;2.33;;
4933;SDS011;2482;49.154;8.254;2024-03-22T14:33:37;2.97;;;2.00;;
4933;SDS011;2482;49.154;8.254;2024-03-22T14:36:05;4.27;;;2.00;;
4933;SDS011;2482;49.154;8.254;2024-03-22T14:38:33;2.20;;;2.00;;
4933;SDS011;2482;49.154;8.254;2024-03-22T14:41:00;2.73;;;1.97;;
4933;SDS011;2482;49.154;8.254;2024-03-22T14:43:42;3.10;;;2.20;;
4933;SDS011;2482;49.154;8.254;2024-03-22T14:47:53;7.23;;;2.60;;
4933;SDS011;2482;49.154;8.254;2024-03-22T14:50:49;3.83;;;2.10;;
4933;SDS011;2482;49.154;8.254;2024-03-22T14:53:17;3.50;;;2.10;;
4933;SDS011;2482;49.154;8.254;2024-03-22T14:58:31;11.10;;;5.73;;
4933;SDS011;2482;49.154;8.254;2024-03-22T15:00:59;4.80;;;2.97;;
4933;SDS011;2482;49.154;8.254;2024-03-22T15:03:28;6.73;;;4.60;;
4933;SDS011;2482;49.154;8.254;2024-03-22T15:05:55;8.03;;;3.00;;
4933;SDS011;2482;49.154;8.254;2024-03-22T15:08:31;4.63;;;2.53;;
4933;SDS011;2482;49.154;8.254;2024-03-22T15:10:58;5.33;;;3.10;;
4933;SDS011;2482;49.154;8.254;2024-03-22T15:13:24;3.20;;;2.33;;
4933;SDS011;2482;49.154;8.254;2024-03-22T15:15:54;5.17;;;3.97;;
4933;SDS011;2482;49.154;8.254;2024-03-22T15:18:22;4.30;;;3.20;;
4933;SDS011;2482;49.154;8.254;2024-03-22T15:20:48;2.70;;;1.97;;